sensor_id;sensor_type;location;lat;lon;timestamp;P1;durP1;ratioP1;P2;durP2;ratioP2
22064;SDS011;11197;53.110;8.468;2022-11-23T00:01:17;9.90;;;4.15;;
22064;SDS011;11197;53.110;8.468;2022-11-23T00:03:48;7.32;;;4.05;;
22064;SDS011;11197;53.110;8.468;2022-11-23T00:06:16;9.18;;;3.78;;
22064;SDS011;11197;53.110;8.468;2022-11-23T00:08:42;9.43;;;4.88;;
22064;SDS011;11197;53.110;8.468;2022-11-23T00:11:09;9.43;;;4.53;;
22064;SDS011;11197;53.110;8.468;2022-11-23T00:13:35;9.48;;;4.15;;
22064;SDS011;11197;53.110;8.468;2022-11-23T00:16:04;10.45;;;4.38;;
22064;SDS011;11197;53.110;8.468;2022-11-23T00:18:38;10.82;;;4.35;;
22064;SDS011;11197;53.110;8.468;2022-11-23T00:21:07;11.00;;;4.10;;
22064;SDS011;11197;53.110;8.468;2022-11-23T00:23:34;6.82;;;4.05;;
22064;SDS011;11197;53.110;8.468;2022-11-23T00:26:01;9.57;;;4.25;;
22064;SDS011;11197;53.110;8.468;2022-11-23T00:28:28;8.57;;;4.25;;
22064;SDS011;11197;53.110;8.468;2022-11-23T00:30:54;9.20;;;4.18;;
22064;SDS011;11197;53.110;8.468;2022-11-23T00:33:20;8.85;;;3.97;;
22064;SDS011;11197;53.110;8.468;2022-11-23T00:35:45;8.15;;;4.00;;
22064;SDS011;11197;53.110;8.468;2022-11-23T00:38:11;10.52;;;4.30;;
22064;SDS011;11197;53.110;8.468;2022-11-23T00:40:37;9.80;;;4.40;;
22064;SDS011;11197;53.110;8.468;2022-11-23T00:43:03;12.15;;;4.30;;
22064;SDS011;11197;53.110;8.468;2022-11-23T00:45:29;10.13;;;4.60;;
22064;SDS011;11197;53.110;8.468;2022-11-23T00:47:55;8.18;;;3.90;;
22064;SDS011;11197;53.110;8.468;2022-11-23T00:50:21;8.00;;;4.07;;
22064;SDS011;11197;53.110;8.468;2022-11-23T00:52:49;10.48;;;4.18;;
22064;SDS011;11197;53.110;8.468;2022-11-23T00:55:15;9.95;;;4.20;;
22064;SDS011;11197;53.110;8.468;2022-11-23T00:57:40;7.28;;;4.18;;
22064;SDS011;11197;53.110;8.468;2022-11-23T01:00:07;7.40;;;3.88;;
22064;SDS011;11197;53.110;8.468;2022-11-23T01:02:34;9.18;;;4.07;;
22064;SDS011;11197;53.110;8.468;2022-11-23T01:05:00;7.88;;;4.07;;
22064;SDS011;11197;53.110;8.468;2022-11-23T01:07:28;8.30;;;4.00;;
22064;SDS011;11197;53.110;8.468;2022-11-23T01:09:56;7.47;;;3.78;;
22064;SDS011;11197;53.110;8.468;2022-11-23T01:12:22;10.10;;;4.10;;
22064;SDS011;11197;53.110;8.468;2022-11-23T01:14:48;14.27;;;4.28;;
22064;SDS011;11197;53.110;8.468;2022-11-23T01:17:14;11.82;;;4.03;;
22064;SDS011;11197;53.110;8.468;2022-11-23T01:19:39;8.23;;;3.67;;
22064;SDS011;11197;53.110;8.468;2022-11-23T01:22:05;9.25;;;4.40;;
22064;SDS011;11197;53.110;8.468;2022-11-23T01:24:31;8.77;;;4.00;;
22064;SDS011;11197;53.110;8.468;2022-11-23T01:26:58;6.43;;;3.70;;
22064;SDS011;11197;53.110;8.468;2022-11-23T01:29:25;9.68;;;3.92;;
22064;SDS011;11197;53.110;8.468;2022-11-23T01:31:51;7.10;;;3.88;;
22064;SDS011;11197;53.110;8.468;2022-11-23T01:34:17;6.70;;;3.60;;
22064;SDS011;11197;53.110;8.468;2022-11-23T01:36:43;8.02;;;3.65;;
22064;SDS011;11197;53.110;8.468;2022-11-23T01:39:09;6.60;;;3.60;;
22064;SDS011;11197;53.110;8.468;2022-11-23T01:41:40;7.45;;;3.85;;
22064;SDS011;11197;53.110;8.468;2022-11-23T01:46:52;8.07;;;3.88;;
22064;SDS011;11197;53.110;8.468;2022-11-23T01:49:20;6.32;;;3.55;;
22064;SDS011;11197;53.110;8.468;2022-11-23T01:54:22;7.97;;;3.40;;
22064;SDS011;11197;53.110;8.468;2022-11-23T01:56:55;8.93;;;3.75;;
22064;SDS011;11197;53.110;8.468;2022-11-23T01:59:24;7.82;;;3.40;;
22064;SDS011;11197;53.110;8.468;2022-11-23T02:01:52;9.18;;;4.15;;
22064;SDS011;11197;53.110;8.468;2022-11-23T02:04:21;8.38;;;3.70;;
22064;SDS011;11197;53.110;8.468;2022-11-23T02:06:49;6.15;;;3.58;;
22064;SDS011;11197;53.110;8.468;2022-11-23T02:09:15;6.88;;;3.53;;
22064;SDS011;11197;53.110;8.468;2022-11-23T02:11:42;6.20;;;3.72;;
22064;SDS011;11197;53.110;8.468;2022-11-23T02:14:12;7.18;;;3.50;;
22064;SDS011;11197;53.110;8.468;2022-11-23T02:16:38;8.43;;;3.75;;
22064;SDS011;11197;53.110;8.468;2022-11-23T02:19:13;7.47;;;3.38;;
22064;SDS011;11197;53.110;8.468;2022-11-23T02:24:34;9.35;;;3.85;;
22064;SDS011;11197;53.110;8.468;2022-11-23T02:27:01;6.68;;;3.72;;
22064;SDS011;11197;53.110;8.468;2022-11-23T02:29:32;5.93;;;3.63;;
22064;SDS011;11197;53.110;8.468;2022-11-23T02:31:59;6.15;;;3.47;;
22064;SDS011;11197;53.110;8.468;2022-11-23T02:34:25;8.48;;;3.65;;
22064;SDS011;11197;53.110;8.468;2022-11-23T02:36:52;5.95;;;3.50;;
22064;SDS011;11197;53.110;8.468;2022-11-23T02:39:30;8.27;;;3.72;;
22064;SDS011;11197;53.110;8.468;2022-11-23T02:41:57;6.78;;;3.25;;
22064;SDS011;11197;53.110;8.468;2022-11-23T02:47:08;7.28;;;3.53;;
22064;SDS011;11197;53.110;8.468;2022-11-23T02:49:38;7.43;;;3.42;;
22064;SDS011;11197;53.110;8.468;2022-11-23T02:52:05;6.68;;;3.28;;
22064;SDS011;11197;53.110;8.468;2022-11-23T02:54:31;5.47;;;3.20;;
22064;SDS011;11197;53.110;8.468;2022-11-23T02:56:57;8.05;;;3.30;;
22064;SDS011;11197;53.110;8.468;2022-11-23T02:59:23;6.50;;;3.63;;
22064;SDS011;11197;53.110;8.468;2022-11-23T03:01:50;6.85;;;3.35;;
22064;SDS011;11197;53.110;8.468;2022-11-23T03:04:20;6.45;;;3.10;;
22064;SDS011;11197;53.110;8.468;2022-11-23T03:06:45;5.47;;;3.13;;
22064;SDS011;11197;53.110;8.468;2022-11-23T03:09:12;6.43;;;3.33;;
22064;SDS011;11197;53.110;8.468;2022-11-23T03:11:37;9.02;;;3.40;;
22064;SDS011;11197;53.110;8.468;2022-11-23T03:14:03;4.85;;;2.83;;
22064;SDS011;11197;53.110;8.468;2022-11-23T03:16:36;5.47;;;3.58;;
22064;SDS011;11197;53.110;8.468;2022-11-23T03:19:02;5.45;;;3.13;;
22064;SDS011;11197;53.110;8.468;2022-11-23T03:21:30;7.97;;;3.20;;
22064;SDS011;11197;53.110;8.468;2022-11-23T03:24:01;5.82;;;3.15;;
22064;SDS011;11197;53.110;8.468;2022-11-23T03:26:27;5.95;;;3.15;;
22064;SDS011;11197;53.110;8.468;2022-11-23T03:29:05;5.80;;;3.13;;
22064;SDS011;11197;53.110;8.468;2022-11-23T03:31:30;6.35;;;3.00;;
22064;SDS011;11197;53.110;8.468;2022-11-23T03:33:57;5.70;;;3.17;;
22064;SDS011;11197;53.110;8.468;2022-11-23T03:36:24;6.53;;;3.55;;
22064;SDS011;11197;53.110;8.468;2022-11-23T03:38:50;7.18;;;2.97;;
22064;SDS011;11197;53.110;8.468;2022-11-23T03:41:31;4.63;;;3.25;;
22064;SDS011;11197;53.110;8.468;2022-11-23T03:43:58;7.28;;;3.35;;
22064;SDS011;11197;53.110;8.468;2022-11-23T03:46:24;7.75;;;3.30;;
22064;SDS011;11197;53.110;8.468;2022-11-23T03:48:50;8.10;;;3.60;;
22064;SDS011;11197;53.110;8.468;2022-11-23T03:51:16;9.68;;;3.70;;
22064;SDS011;11197;53.110;8.468;2022-11-23T03:53:42;8.38;;;3.55;;
22064;SDS011;11197;53.110;8.468;2022-11-23T03:56:08;7.05;;;3.40;;
22064;SDS011;11197;53.110;8.468;2022-11-23T03:58:39;8.30;;;3.58;;
22064;SDS011;11197;53.110;8.468;2022-11-23T04:01:11;7.05;;;3.25;;
22064;SDS011;11197;53.110;8.468;2022-11-23T04:03:58;7.13;;;3.65;;
22064;SDS011;11197;53.110;8.468;2022-11-23T04:06:57;7.13;;;4.05;;
22064;SDS011;11197;53.110;8.468;2022-11-23T04:09:27;8.10;;;3.97;;
22064;SDS011;11197;53.110;8.468;2022-11-23T04:12:02;7.30;;;4.20;;
22064;SDS011;11197;53.110;8.468;2022-11-23T04:14:29;8.48;;;3.97;;
22064;SDS011;11197;53.110;8.468;2022-11-23T04:16:55;8.80;;;4.30;;
22064;SDS011;11197;53.110;8.468;2022-11-23T04:19:21;8.65;;;3.85;;
22064;SDS011;11197;53.110;8.468;2022-11-23T04:21:46;6.82;;;3.95;;
22064;SDS011;11197;53.110;8.468;2022-11-23T04:24:13;9.68;;;4.22;;
22064;SDS011;11197;53.110;8.468;2022-11-23T04:26:40;10.18;;;4.15;;
22064;SDS011;11197;53.110;8.468;2022-11-23T04:29:08;8.35;;;4.07;;
22064;SDS011;11197;53.110;8.468;2022-11-23T04:31:37;6.60;;;3.80;;
22064;SDS011;11197;53.110;8.468;2022-11-23T04:34:10;11.13;;;4.13;;
22064;SDS011;11197;53.110;8.468;2022-11-23T04:36:37;7.22;;;3.53;;
22064;SDS011;11197;53.110;8.468;2022-11-23T04:39:03;11.60;;;4.03;;
22064;SDS011;11197;53.110;8.468;2022-11-23T04:41:38;10.02;;;3.75;;
22064;SDS011;11197;53.110;8.468;2022-11-23T04:44:05;10.23;;;4.00;;
22064;SDS011;11197;53.110;8.468;2022-11-23T04:46:32;8.68;;;3.92;;
22064;SDS011;11197;53.110;8.468;2022-11-23T04:49:02;5.93;;;3.80;;
22064;SDS011;11197;53.110;8.468;2022-11-23T04:51:29;7.55;;;3.83;;
22064;SDS011;11197;53.110;8.468;2022-11-23T04:53:55;10.95;;;4.25;;
22064;SDS011;11197;53.110;8.468;2022-11-23T04:56:21;8.52;;;3.88;;
22064;SDS011;11197;53.110;8.468;2022-11-23T04:58:47;8.55;;;4.22;;
22064;SDS011;11197;53.110;8.468;2022-11-23T05:01:13;11.20;;;4.22;;
22064;SDS011;11197;53.110;8.468;2022-11-23T05:03:59;12.15;;;4.13;;
22064;SDS011;11197;53.110;8.468;2022-11-23T05:06:26;8.50;;;4.20;;
22064;SDS011;11197;53.110;8.468;2022-11-23T05:08:52;10.35;;;4.97;;
22064;SDS011;11197;53.110;8.468;2022-11-23T05:11:39;9.00;;;4.70;;
22064;SDS011;11197;53.110;8.468;2022-11-23T05:14:07;11.48;;;4.78;;
22064;SDS011;11197;53.110;8.468;2022-11-23T05:16:33;9.32;;;4.60;;
22064;SDS011;11197;53.110;8.468;2022-11-23T05:18:59;11.90;;;4.88;;
22064;SDS011;11197;53.110;8.468;2022-11-23T05:21:26;9.18;;;4.43;;
22064;SDS011;11197;53.110;8.468;2022-11-23T05:23:53;11.52;;;4.57;;
22064;SDS011;11197;53.110;8.468;2022-11-23T05:26:19;9.65;;;5.00;;
22064;SDS011;11197;53.110;8.468;2022-11-23T05:28:46;9.80;;;4.72;;
22064;SDS011;11197;53.110;8.468;2022-11-23T05:31:14;10.95;;;4.40;;
22064;SDS011;11197;53.110;8.468;2022-11-23T05:33:42;10.00;;;4.78;;
22064;SDS011;11197;53.110;8.468;2022-11-23T05:36:08;13.80;;;5.00;;
22064;SDS011;11197;53.110;8.468;2022-11-23T05:38:39;9.02;;;4.60;;
22064;SDS011;11197;53.110;8.468;2022-11-23T05:41:12;9.30;;;4.90;;
22064;SDS011;11197;53.110;8.468;2022-11-23T05:43:40;10.13;;;5.00;;
22064;SDS011;11197;53.110;8.468;2022-11-23T05:46:09;11.77;;;4.57;;
22064;SDS011;11197;53.110;8.468;2022-11-23T05:48:36;10.65;;;4.80;;
22064;SDS011;11197;53.110;8.468;2022-11-23T05:51:07;9.95;;;4.60;;
22064;SDS011;11197;53.110;8.468;2022-11-23T05:53:36;11.27;;;4.70;;
22064;SDS011;11197;53.110;8.468;2022-11-23T05:56:28;12.85;;;4.78;;
22064;SDS011;11197;53.110;8.468;2022-11-23T05:59:16;14.30;;;5.05;;
22064;SDS011;11197;53.110;8.468;2022-11-23T06:04:22;10.20;;;5.32;;
22064;SDS011;11197;53.110;8.468;2022-11-23T06:06:56;14.45;;;5.45;;
22064;SDS011;11197;53.110;8.468;2022-11-23T06:09:54;12.27;;;6.10;;
22064;SDS011;11197;53.110;8.468;2022-11-23T06:12:20;12.93;;;6.22;;
22064;SDS011;11197;53.110;8.468;2022-11-23T06:14:46;15.40;;;6.07;;
22064;SDS011;11197;53.110;8.468;2022-11-23T06:17:14;13.63;;;6.47;;
22064;SDS011;11197;53.110;8.468;2022-11-23T06:19:47;13.98;;;6.75;;
22064;SDS011;11197;53.110;8.468;2022-11-23T06:22:13;10.43;;;6.05;;
22064;SDS011;11197;53.110;8.468;2022-11-23T06:24:56;10.35;;;5.80;;
22064;SDS011;11197;53.110;8.468;2022-11-23T06:27:58;10.63;;;6.03;;
22064;SDS011;11197;53.110;8.468;2022-11-23T06:30:32;12.27;;;5.95;;
22064;SDS011;11197;53.110;8.468;2022-11-23T06:33:03;13.20;;;5.88;;
22064;SDS011;11197;53.110;8.468;2022-11-23T06:35:33;10.18;;;5.70;;
22064;SDS011;11197;53.110;8.468;2022-11-23T06:37:59;10.77;;;6.38;;
22064;SDS011;11197;53.110;8.468;2022-11-23T06:40:27;11.27;;;5.90;;
22064;SDS011;11197;53.110;8.468;2022-11-23T06:42:57;13.88;;;6.18;;
22064;SDS011;11197;53.110;8.468;2022-11-23T06:45:31;15.73;;;6.40;;
22064;SDS011;11197;53.110;8.468;2022-11-23T06:48:01;13.63;;;6.25;;
22064;SDS011;11197;53.110;8.468;2022-11-23T06:50:28;14.50;;;6.90;;
22064;SDS011;11197;53.110;8.468;2022-11-23T06:52:55;17.00;;;7.78;;
22064;SDS011;11197;53.110;8.468;2022-11-23T06:55:31;15.07;;;7.85;;
22064;SDS011;11197;53.110;8.468;2022-11-23T06:57:57;14.57;;;7.55;;
22064;SDS011;11197;53.110;8.468;2022-11-23T07:00:24;14.00;;;7.88;;
22064;SDS011;11197;53.110;8.468;2022-11-23T07:02:50;19.33;;;8.30;;
22064;SDS011;11197;53.110;8.468;2022-11-23T07:05:19;12.98;;;7.65;;
22064;SDS011;11197;53.110;8.468;2022-11-23T07:07:45;13.68;;;7.40;;
22064;SDS011;11197;53.110;8.468;2022-11-23T07:10:18;12.68;;;7.68;;
22064;SDS011;11197;53.110;8.468;2022-11-23T07:12:48;12.05;;;7.20;;
22064;SDS011;11197;53.110;8.468;2022-11-23T07:15:18;12.07;;;6.78;;
22064;SDS011;11197;53.110;8.468;2022-11-23T07:17:44;10.60;;;6.68;;
22064;SDS011;11197;53.110;8.468;2022-11-23T07:20:11;12.25;;;6.47;;
22064;SDS011;11197;53.110;8.468;2022-11-23T07:22:38;10.52;;;6.35;;
22064;SDS011;11197;53.110;8.468;2022-11-23T07:25:04;12.75;;;6.40;;
22064;SDS011;11197;53.110;8.468;2022-11-23T07:27:31;11.13;;;5.97;;
22064;SDS011;11197;53.110;8.468;2022-11-23T07:29:56;11.50;;;6.10;;
22064;SDS011;11197;53.110;8.468;2022-11-23T07:32:22;11.40;;;5.10;;
22064;SDS011;11197;53.110;8.468;2022-11-23T07:34:48;9.63;;;4.60;;
22064;SDS011;11197;53.110;8.468;2022-11-23T07:37:15;11.55;;;4.45;;
22064;SDS011;11197;53.110;8.468;2022-11-23T07:39:43;12.02;;;4.80;;
22064;SDS011;11197;53.110;8.468;2022-11-23T07:42:09;9.18;;;4.38;;
22064;SDS011;11197;53.110;8.468;2022-11-23T07:44:37;7.88;;;4.45;;
22064;SDS011;11197;53.110;8.468;2022-11-23T07:47:07;11.95;;;4.45;;
22064;SDS011;11197;53.110;8.468;2022-11-23T07:49:33;10.90;;;4.50;;
22064;SDS011;11197;53.110;8.468;2022-11-23T07:51:58;11.27;;;4.40;;
22064;SDS011;11197;53.110;8.468;2022-11-23T07:54:24;10.10;;;4.22;;
22064;SDS011;11197;53.110;8.468;2022-11-23T07:56:50;8.88;;;4.07;;
22064;SDS011;11197;53.110;8.468;2022-11-23T07:59:16;10.35;;;3.85;;
22064;SDS011;11197;53.110;8.468;2022-11-23T08:01:42;11.60;;;3.78;;
22064;SDS011;11197;53.110;8.468;2022-11-23T08:04:07;9.52;;;3.67;;
22064;SDS011;11197;53.110;8.468;2022-11-23T08:06:33;10.43;;;3.70;;
22064;SDS011;11197;53.110;8.468;2022-11-23T08:08:59;9.93;;;3.80;;
22064;SDS011;11197;53.110;8.468;2022-11-23T08:11:25;9.88;;;3.70;;
22064;SDS011;11197;53.110;8.468;2022-11-23T08:13:50;9.13;;;3.75;;
22064;SDS011;11197;53.110;8.468;2022-11-23T08:16:16;11.60;;;3.90;;
22064;SDS011;11197;53.110;8.468;2022-11-23T08:18:44;8.65;;;3.53;;
22064;SDS011;11197;53.110;8.468;2022-11-23T08:21:10;8.70;;;4.00;;
22064;SDS011;11197;53.110;8.468;2022-11-23T08:23:35;6.38;;;3.70;;
22064;SDS011;11197;53.110;8.468;2022-11-23T08:26:02;9.50;;;3.65;;
22064;SDS011;11197;53.110;8.468;2022-11-23T08:28:28;8.63;;;3.97;;
22064;SDS011;11197;53.110;8.468;2022-11-23T08:30:54;13.70;;;4.30;;
22064;SDS011;11197;53.110;8.468;2022-11-23T08:33:23;8.27;;;3.90;;
22064;SDS011;11197;53.110;8.468;2022-11-23T08:35:49;8.38;;;4.25;;
22064;SDS011;11197;53.110;8.468;2022-11-23T08:38:15;9.35;;;4.57;;
22064;SDS011;11197;53.110;8.468;2022-11-23T08:40:41;7.47;;;4.25;;
22064;SDS011;11197;53.110;8.468;2022-11-23T08:43:06;9.88;;;4.57;;
22064;SDS011;11197;53.110;8.468;2022-11-23T08:45:32;12.30;;;4.43;;
22064;SDS011;11197;53.110;8.468;2022-11-23T08:48:02;7.63;;;4.55;;
22064;SDS011;11197;53.110;8.468;2022-11-23T08:50:29;9.68;;;4.82;;
22064;SDS011;11197;53.110;8.468;2022-11-23T08:52:55;10.68;;;4.60;;
22064;SDS011;11197;53.110;8.468;2022-11-23T08:55:23;9.90;;;5.07;;
22064;SDS011;11197;53.110;8.468;2022-11-23T08:57:50;10.05;;;5.30;;
22064;SDS011;11197;53.110;8.468;2022-11-23T09:00:19;11.07;;;5.13;;
22064;SDS011;11197;53.110;8.468;2022-11-23T09:02:46;10.15;;;4.90;;
22064;SDS011;11197;53.110;8.468;2022-11-23T09:05:11;10.60;;;5.20;;
22064;SDS011;11197;53.110;8.468;2022-11-23T09:07:37;10.20;;;4.57;;
22064;SDS011;11197;53.110;8.468;2022-11-23T09:10:04;9.85;;;4.97;;
22064;SDS011;11197;53.110;8.468;2022-11-23T09:12:30;7.68;;;4.70;;
22064;SDS011;11197;53.110;8.468;2022-11-23T09:14:57;9.13;;;4.80;;
22064;SDS011;11197;53.110;8.468;2022-11-23T09:17:22;8.38;;;5.15;;
22064;SDS011;11197;53.110;8.468;2022-11-23T09:19:51;11.25;;;5.45;;
22064;SDS011;11197;53.110;8.468;2022-11-23T09:22:17;9.05;;;4.75;;
22064;SDS011;11197;53.110;8.468;2022-11-23T09:24:43;11.75;;;5.47;;
22064;SDS011;11197;53.110;8.468;2022-11-23T09:27:09;11.65;;;5.20;;
22064;SDS011;11197;53.110;8.468;2022-11-23T09:29:34;9.65;;;5.65;;
22064;SDS011;11197;53.110;8.468;2022-11-23T09:32:01;11.50;;;5.72;;
22064;SDS011;11197;53.110;8.468;2022-11-23T09:34:28;10.18;;;5.50;;
22064;SDS011;11197;53.110;8.468;2022-11-23T09:36:55;12.05;;;5.75;;
22064;SDS011;11197;53.110;8.468;2022-11-23T09:39:21;10.25;;;6.00;;
22064;SDS011;11197;53.110;8.468;2022-11-23T09:41:51;8.43;;;6.05;;
22064;SDS011;11197;53.110;8.468;2022-11-23T09:47:28;12.05;;;6.15;;
22064;SDS011;11197;53.110;8.468;2022-11-23T09:52:31;14.88;;;7.32;;
22064;SDS011;11197;53.110;8.468;2022-11-23T09:55:44;12.30;;;6.90;;
22064;SDS011;11197;53.110;8.468;2022-11-23T09:57:57;10.13;;;6.80;;
22064;SDS011;11197;53.110;8.468;2022-11-23T10:00:27;12.40;;;6.72;;
22064;SDS011;11197;53.110;8.468;2022-11-23T10:03:01;10.43;;;6.22;;
22064;SDS011;11197;53.110;8.468;2022-11-23T10:05:28;14.43;;;6.18;;
22064;SDS011;11197;53.110;8.468;2022-11-23T10:10:41;11.60;;;6.00;;
22064;SDS011;11197;53.110;8.468;2022-11-23T10:21:21;10.80;;;6.07;;
22064;SDS011;11197;53.110;8.468;2022-11-23T10:26:39;8.80;;;5.40;;
22064;SDS011;11197;53.110;8.468;2022-11-23T10:29:12;13.07;;;6.20;;
22064;SDS011;11197;53.110;8.468;2022-11-23T10:31:42;10.98;;;6.13;;
22064;SDS011;11197;53.110;8.468;2022-11-23T10:34:13;14.38;;;6.40;;
22064;SDS011;11197;53.110;8.468;2022-11-23T10:36:41;8.43;;;6.00;;
22064;SDS011;11197;53.110;8.468;2022-11-23T10:39:16;10.55;;;6.75;;
22064;SDS011;11197;53.110;8.468;2022-11-23T10:41:52;13.60;;;6.05;;
22064;SDS011;11197;53.110;8.468;2022-11-23T10:46:49;10.15;;;5.60;;
22064;SDS011;11197;53.110;8.468;2022-11-23T10:49:19;10.82;;;5.40;;
22064;SDS011;11197;53.110;8.468;2022-11-23T10:57:00;8.70;;;4.82;;
22064;SDS011;11197;53.110;8.468;2022-11-23T10:59:48;9.35;;;4.97;;
22064;SDS011;11197;53.110;8.468;2022-11-23T11:02:22;11.32;;;4.82;;
22064;SDS011;11197;53.110;8.468;2022-11-23T11:04:49;11.05;;;5.10;;
22064;SDS011;11197;53.110;8.468;2022-11-23T11:07:20;11.93;;;4.78;;
22064;SDS011;11197;53.110;8.468;2022-11-23T11:09:50;8.50;;;4.57;;
22064;SDS011;11197;53.110;8.468;2022-11-23T11:12:17;10.13;;;4.70;;
22064;SDS011;11197;53.110;8.468;2022-11-23T11:14:59;7.82;;;4.40;;
22064;SDS011;11197;53.110;8.468;2022-11-23T11:17:34;10.07;;;4.90;;
22064;SDS011;11197;53.110;8.468;2022-11-23T11:20:27;12.38;;;4.63;;
22064;SDS011;11197;53.110;8.468;2022-11-23T11:22:54;11.10;;;4.20;;
22064;SDS011;11197;53.110;8.468;2022-11-23T11:25:26;9.93;;;4.40;;
22064;SDS011;11197;53.110;8.468;2022-11-23T11:28:01;7.72;;;4.10;;
22064;SDS011;11197;53.110;8.468;2022-11-23T11:30:44;8.25;;;4.13;;
22064;SDS011;11197;53.110;8.468;2022-11-23T11:33:21;8.95;;;4.22;;
22064;SDS011;11197;53.110;8.468;2022-11-23T11:35:54;9.85;;;4.40;;
22064;SDS011;11197;53.110;8.468;2022-11-23T11:38:25;10.32;;;4.35;;
22064;SDS011;11197;53.110;8.468;2022-11-23T11:40:56;11.20;;;4.55;;
22064;SDS011;11197;53.110;8.468;2022-11-23T11:46:00;12.93;;;4.43;;
22064;SDS011;11197;53.110;8.468;2022-11-23T11:51:12;11.05;;;4.85;;
22064;SDS011;11197;53.110;8.468;2022-11-23T11:53:44;12.93;;;5.00;;
22064;SDS011;11197;53.110;8.468;2022-11-23T11:58:59;11.65;;;4.32;;
22064;SDS011;11197;53.110;8.468;2022-11-23T12:01:35;10.50;;;4.50;;
22064;SDS011;11197;53.110;8.468;2022-11-23T12:04:58;11.30;;;4.45;;
22064;SDS011;11197;53.110;8.468;2022-11-23T12:09:41;12.00;;;4.30;;
22064;SDS011;11197;53.110;8.468;2022-11-23T12:12:14;8.63;;;3.97;;
22064;SDS011;11197;53.110;8.468;2022-11-23T12:14:42;9.25;;;3.50;;
22064;SDS011;11197;53.110;8.468;2022-11-23T12:17:17;11.65;;;3.95;;
22064;SDS011;11197;53.110;8.468;2022-11-23T12:20:07;8.98;;;3.75;;
22064;SDS011;11197;53.110;8.468;2022-11-23T12:25:37;10.27;;;3.15;;
22064;SDS011;11197;53.110;8.468;2022-11-23T12:36:33;12.25;;;2.90;;
22064;SDS011;11197;53.110;8.468;2022-11-23T13:00:46;9.18;;;2.47;;
22064;SDS011;11197;53.110;8.468;2022-11-23T13:03:37;11.10;;;2.30;;
22064;SDS011;11197;53.110;8.468;2022-11-23T13:22:03;7.75;;;1.77;;
22064;SDS011;11197;53.110;8.468;2022-11-23T13:24:32;6.78;;;1.75;;
22064;SDS011;11197;53.110;8.468;2022-11-23T13:35:03;7.70;;;1.65;;
22064;SDS011;11197;53.110;8.468;2022-11-23T13:40:25;5.82;;;1.70;;
22064;SDS011;11197;53.110;8.468;2022-11-23T13:42:52;9.38;;;1.98;;
22064;SDS011;11197;53.110;8.468;2022-11-23T13:50:33;6.25;;;1.50;;
22064;SDS011;11197;53.110;8.468;2022-11-23T13:56:17;6.30;;;1.70;;
22064;SDS011;11197;53.110;8.468;2022-11-23T13:58:53;8.10;;;1.63;;
22064;SDS011;11197;53.110;8.468;2022-11-23T14:04:38;10.82;;;3.45;;
22064;SDS011;11197;53.110;8.468;2022-11-23T14:09:35;10.55;;;1.80;;
22064;SDS011;11197;53.110;8.468;2022-11-23T14:17:28;7.78;;;1.70;;
22064;SDS011;11197;53.110;8.468;2022-11-23T14:28:11;5.70;;;1.65;;
22064;SDS011;11197;53.110;8.468;2022-11-23T14:36:49;4.93;;;1.17;;
22064;SDS011;11197;53.110;8.468;2022-11-23T14:42:13;8.43;;;2.10;;
22064;SDS011;11197;53.110;8.468;2022-11-23T14:44:42;6.38;;;1.75;;
22064;SDS011;11197;53.110;8.468;2022-11-23T14:47:10;6.05;;;1.80;;
22064;SDS011;11197;53.110;8.468;2022-11-23T14:49:48;9.57;;;1.95;;
22064;SDS011;11197;53.110;8.468;2022-11-23T14:52:17;7.30;;;1.80;;
22064;SDS011;11197;53.110;8.468;2022-11-23T14:54:56;5.78;;;1.52;;
22064;SDS011;11197;53.110;8.468;2022-11-23T14:57:25;6.50;;;1.60;;
22064;SDS011;11197;53.110;8.468;2022-11-23T14:59:59;7.80;;;1.65;;
22064;SDS011;11197;53.110;8.468;2022-11-23T15:02:35;8.35;;;2.17;;
22064;SDS011;11197;53.110;8.468;2022-11-23T15:07:46;7.65;;;2.05;;
22064;SDS011;11197;53.110;8.468;2022-11-23T15:12:55;6.90;;;2.10;;
22064;SDS011;11197;53.110;8.468;2022-11-23T15:15:25;7.40;;;2.15;;
22064;SDS011;11197;53.110;8.468;2022-11-23T15:17:54;9.52;;;2.30;;
22064;SDS011;11197;53.110;8.468;2022-11-23T15:20:21;7.97;;;2.40;;
22064;SDS011;11197;53.110;8.468;2022-11-23T15:22:52;8.73;;;2.22;;
22064;SDS011;11197;53.110;8.468;2022-11-23T15:25:18;7.18;;;1.73;;
22064;SDS011;11197;53.110;8.468;2022-11-23T15:27:45;7.30;;;2.70;;
22064;SDS011;11197;53.110;8.468;2022-11-23T15:32:52;8.65;;;2.40;;
22064;SDS011;11197;53.110;8.468;2022-11-23T15:35:20;8.40;;;2.50;;
22064;SDS011;11197;53.110;8.468;2022-11-23T15:37:50;6.70;;;2.70;;
22064;SDS011;11197;53.110;8.468;2022-11-23T15:40:17;2.63;;;1.00;;
22064;SDS011;11197;53.110;8.468;2022-11-23T15:42:44;8.25;;;2.80;;
22064;SDS011;11197;53.110;8.468;2022-11-23T15:48:02;11.43;;;3.90;;
22064;SDS011;11197;53.110;8.468;2022-11-23T15:50:30;12.25;;;4.13;;
22064;SDS011;11197;53.110;8.468;2022-11-23T15:52:58;11.80;;;3.92;;
22064;SDS011;11197;53.110;8.468;2022-11-23T15:55:25;9.73;;;3.72;;
22064;SDS011;11197;53.110;8.468;2022-11-23T15:57:57;10.48;;;3.28;;
22064;SDS011;11197;53.110;8.468;2022-11-23T16:00:26;8.55;;;2.22;;
22064;SDS011;11197;53.110;8.468;2022-11-23T16:02:52;10.05;;;2.42;;
22064;SDS011;11197;53.110;8.468;2022-11-23T16:05:38;7.50;;;2.40;;
22064;SDS011;11197;53.110;8.468;2022-11-23T16:08:21;8.50;;;2.20;;
22064;SDS011;11197;53.110;8.468;2022-11-23T16:10:52;7.03;;;2.05;;
22064;SDS011;11197;53.110;8.468;2022-11-23T16:13:35;8.48;;;2.00;;
22064;SDS011;11197;53.110;8.468;2022-11-23T16:16:07;5.72;;;2.05;;
22064;SDS011;11197;53.110;8.468;2022-11-23T16:18:42;9.73;;;2.00;;
22064;SDS011;11197;53.110;8.468;2022-11-23T16:21:13;9.68;;;2.38;;
22064;SDS011;11197;53.110;8.468;2022-11-23T16:23:43;9.30;;;2.28;;
22064;SDS011;11197;53.110;8.468;2022-11-23T16:26:30;6.80;;;2.40;;
22064;SDS011;11197;53.110;8.468;2022-11-23T16:28:57;8.98;;;3.10;;
22064;SDS011;11197;53.110;8.468;2022-11-23T16:33:59;6.25;;;3.00;;
22064;SDS011;11197;53.110;8.468;2022-11-23T16:36:26;9.77;;;3.60;;
22064;SDS011;11197;53.110;8.468;2022-11-23T16:38:53;8.45;;;3.35;;
22064;SDS011;11197;53.110;8.468;2022-11-23T16:41:19;10.57;;;3.88;;
22064;SDS011;11197;53.110;8.468;2022-11-23T16:43:48;10.70;;;3.90;;
22064;SDS011;11197;53.110;8.468;2022-11-23T16:46:18;7.82;;;3.83;;
22064;SDS011;11197;53.110;8.468;2022-11-23T16:48:44;8.07;;;3.80;;
22064;SDS011;11197;53.110;8.468;2022-11-23T16:51:10;8.52;;;3.55;;
22064;SDS011;11197;53.110;8.468;2022-11-23T16:53:45;12.77;;;5.63;;
22064;SDS011;11197;53.110;8.468;2022-11-23T16:56:14;11.80;;;6.72;;
22064;SDS011;11197;53.110;8.468;2022-11-23T16:58:48;13.52;;;7.10;;
22064;SDS011;11197;53.110;8.468;2022-11-23T17:01:24;12.77;;;6.65;;
22064;SDS011;11197;53.110;8.468;2022-11-23T17:03:53;12.85;;;7.15;;
22064;SDS011;11197;53.110;8.468;2022-11-23T17:06:19;13.38;;;7.63;;
22064;SDS011;11197;53.110;8.468;2022-11-23T17:08:49;13.13;;;6.85;;
22064;SDS011;11197;53.110;8.468;2022-11-23T17:11:17;13.05;;;7.13;;
22064;SDS011;11197;53.110;8.468;2022-11-23T17:13:46;11.43;;;6.80;;
22064;SDS011;11197;53.110;8.468;2022-11-23T17:16:17;11.75;;;6.65;;
22064;SDS011;11197;53.110;8.468;2022-11-23T17:18:45;13.60;;;6.45;;
22064;SDS011;11197;53.110;8.468;2022-11-23T17:21:11;14.32;;;6.70;;
22064;SDS011;11197;53.110;8.468;2022-11-23T17:23:37;11.93;;;6.60;;
22064;SDS011;11197;53.110;8.468;2022-11-23T17:26:05;13.63;;;5.82;;
22064;SDS011;11197;53.110;8.468;2022-11-23T17:28:41;16.48;;;5.97;;
22064;SDS011;11197;53.110;8.468;2022-11-23T17:31:07;15.98;;;6.35;;
22064;SDS011;11197;53.110;8.468;2022-11-23T17:33:34;8.88;;;4.00;;
22064;SDS011;11197;53.110;8.468;2022-11-23T17:36:00;11.45;;;3.88;;
22064;SDS011;11197;53.110;8.468;2022-11-23T17:38:26;10.20;;;3.17;;